createdAt,value
2017-12-25T00:01:07.320Z,86.99
2017-12-25T00:03:36.554Z,87.05
2017-12-25T00:06:05.776Z,87.14
2017-12-25T00:08:34.968Z,87.23
2017-12-25T00:11:04.184Z,87.34
2017-12-25T00:13:34.163Z,87.81
2017-12-25T00:16:03.385Z,88.01
2017-12-25T00:18:32.607Z,88.20
2017-12-25T00:21:02.573Z,88.01
2017-12-25T00:23:31.870Z,87.99
2017-12-25T00:26:01.066Z,87.86
2017-12-25T00:28:30.381Z,88.00
2017-12-25T00:30:59.568Z,87.66
2017-12-25T00:33:28.732Z,87.58
2017-12-25T00:35:57.978Z,87.32
2017-12-25T00:38:27.193Z,87.49
2017-12-25T00:40:57.328Z,87.72
2017-12-25T00:43:27.302Z,87.40
2017-12-25T00:45:56.510Z,87.21
2017-12-25T00:48:25.719Z,87.19
2017-12-25T00:50:54.982Z,86.98
2017-12-25T00:53:24.418Z,86.88
2017-12-25T00:55:53.646Z,86.63
2017-12-25T00:58:22.854Z,86.53
2017-12-25T01:00:52.126Z,86.41
2017-12-25T01:03:22.084Z,86.46
2017-12-25T01:05:51.283Z,86.16
2017-12-25T01:08:20.498Z,86.42
2017-12-25T01:10:49.680Z,86.56
2017-12-25T01:13:18.898Z,86.26
2017-12-25T01:15:48.109Z,86.38
2017-12-25T01:18:17.305Z,86.45
2017-12-25T01:20:46.500Z,86.42
2017-12-25T01:23:15.699Z,86.34
2017-12-25T01:25:44.878Z,86.59
2017-12-25T01:28:14.079Z,86.30
2017-12-25T01:30:43.276Z,85.60
2017-12-25T01:33:12.482Z,85.81
2017-12-25T01:35:42.520Z,85.65
2017-12-25T01:38:11.754Z,85.78
2017-12-25T01:40:40.979Z,85.88
2017-12-25T01:43:10.184Z,85.98
2017-12-25T01:45:39.383Z,85.91
2017-12-25T01:48:08.574Z,85.84
2017-12-25T01:50:37.755Z,86.22
2017-12-25T01:53:06.994Z,85.98
2017-12-25T01:55:36.200Z,85.70
2017-12-25T01:58:27.247Z,85.70
2017-12-25T02:14:30.516Z,85.85
2017-12-25T02:16:59.755Z,86.06
2017-12-25T02:19:28.967Z,86.19
2017-12-25T02:21:58.172Z,86.44
2017-12-25T02:24:27.543Z,86.47
2017-12-25T02:26:56.738Z,86.75
2017-12-25T02:29:25.935Z,86.91
2017-12-25T02:31:55.160Z,87.03
2017-12-25T02:34:24.366Z,87.31
2017-12-25T02:36:54.343Z,87.29
2017-12-25T02:39:23.547Z,87.04
2017-12-25T02:41:52.752Z,87.07
2017-12-25T02:44:21.977Z,87.12
2017-12-25T02:46:51.173Z,86.88
2017-12-25T02:49:21.124Z,86.73
2017-12-25T02:51:50.398Z,86.76
2017-12-25T02:54:20.364Z,86.58
2017-12-25T02:56:49.553Z,86.55
2017-12-25T02:59:19.562Z,86.64
2017-12-25T03:01:48.774Z,86.67
2017-12-25T03:04:17.956Z,86.61
2017-12-25T03:06:47.180Z,86.77
2017-12-25T03:09:16.387Z,86.81
2017-12-25T03:11:45.591Z,86.69
2017-12-25T03:14:14.772Z,86.92
2017-12-25T03:16:43.969Z,86.86
2017-12-25T03:19:13.170Z,86.88
2017-12-25T03:21:42.363Z,86.93
2017-12-25T03:24:11.594Z,87.04
2017-12-25T03:26:41.553Z,87.37
2017-12-25T03:29:10.746Z,87.60
2017-12-25T03:31:39.939Z,87.61
2017-12-25T03:34:09.139Z,87.60
2017-12-25T03:36:38.335Z,87.54
2017-12-25T03:39:07.546Z,87.59
2017-12-25T03:41:36.731Z,87.76
2017-12-25T03:44:05.966Z,87.84
2017-12-25T03:46:35.192Z,87.97
2017-12-25T03:49:05.158Z,87.92
2017-12-25T03:51:34.391Z,88.05
2017-12-25T03:54:03.588Z,88.22
2017-12-25T03:56:33.546Z,88.15
2017-12-25T03:59:02.737Z,88.08
2017-12-25T04:01:31.935Z,88.20
2017-12-25T04:04:01.165Z,88.39
2017-12-25T04:06:30.349Z,88.62
2017-12-25T04:08:59.561Z,88.39
2017-12-25T04:11:28.753Z,88.62
2017-12-25T04:13:57.963Z,88.64
2017-12-25T04:16:27.171Z,88.56
2017-12-25T04:18:56.392Z,88.53
2017-12-25T04:21:26.371Z,88.47
2017-12-25T04:23:55.570Z,88.35
2017-12-25T04:26:24.794Z,88.47
2017-12-25T04:28:54.804Z,88.42
2017-12-25T04:31:24.056Z,88.32
2017-12-25T04:33:53.276Z,88.60
2017-12-25T04:36:22.523Z,88.42
2017-12-25T04:38:51.723Z,88.50
2017-12-25T04:41:20.919Z,88.67
2017-12-25T04:43:50.893Z,88.71
2017-12-25T04:46:20.170Z,88.69
2017-12-25T04:48:49.346Z,88.65
2017-12-25T04:51:18.567Z,88.59
2017-12-25T04:53:47.758Z,88.55
2017-12-25T04:56:16.989Z,88.57
2017-12-25T04:58:46.206Z,88.53
2017-12-25T05:01:16.179Z,88.54
2017-12-25T05:03:45.365Z,88.52
2017-12-25T05:06:14.571Z,88.41
2017-12-25T05:08:43.757Z,88.34
2017-12-25T05:11:12.955Z,88.44
2017-12-25T05:13:42.165Z,88.30
2017-12-25T05:16:11.359Z,88.44
2017-12-25T05:18:40.547Z,88.33
2017-12-25T05:21:09.757Z,88.33
2017-12-25T05:23:38.967Z,88.10
2017-12-25T05:26:08.171Z,87.95
2017-12-25T05:28:37.389Z,87.74
2017-12-25T05:31:06.538Z,87.69
2017-12-25T05:33:35.750Z,87.83
2017-12-25T05:36:04.929Z,87.68
2017-12-25T05:38:34.122Z,87.46
2017-12-25T05:41:03.323Z,87.22
2017-12-25T05:43:32.659Z,87.10
2017-12-25T05:46:01.835Z,86.87
2017-12-25T05:48:31.031Z,86.58
2017-12-25T05:51:00.219Z,86.34
2017-12-25T05:53:29.453Z,86.00
2017-12-25T05:55:58.648Z,86.25
2017-12-25T05:58:27.830Z,86.03
2017-12-25T06:00:57.031Z,85.83
2017-12-25T06:03:26.233Z,85.90
2017-12-25T06:05:55.424Z,85.89
2017-12-25T06:08:25.518Z,86.07
2017-12-25T06:10:54.778Z,86.09
2017-12-25T06:13:23.967Z,86.36
2017-12-25T06:15:53.935Z,86.25
2017-12-25T06:18:23.131Z,86.29
2017-12-25T06:20:52.327Z,86.29
2017-12-25T06:23:21.503Z,86.39
2017-12-25T06:25:50.766Z,86.40
2017-12-25T06:28:20.734Z,86.45
2017-12-25T06:30:49.952Z,86.65
2017-12-25T06:33:19.160Z,86.42
2017-12-25T06:35:48.351Z,86.58
2017-12-25T06:38:17.562Z,86.28
2017-12-25T06:40:46.729Z,86.17
2017-12-25T06:43:15.992Z,85.84
2017-12-25T06:45:45.176Z,85.76
2017-12-25T06:48:15.139Z,85.52
2017-12-25T06:50:44.407Z,84.89
2017-12-25T06:53:13.634Z,84.76
2017-12-25T06:55:42.823Z,84.58
2017-12-25T06:58:12.003Z,84.21
2017-12-25T07:00:41.195Z,84.09
2017-12-25T07:03:10.379Z,84.07
2017-12-25T07:05:39.606Z,83.54
2017-12-25T07:08:08.796Z,82.96
2017-12-25T07:10:38.026Z,82.86
2017-12-25T07:13:07.230Z,82.49
2017-12-25T07:15:36.482Z,82.19
2017-12-25T07:18:05.672Z,82.06
2017-12-25T07:20:34.907Z,81.93
2017-12-25T07:23:04.071Z,81.74
2017-12-25T07:25:33.299Z,81.54
2017-12-25T07:28:02.502Z,81.88
2017-12-25T07:30:31.729Z,81.68
2017-12-25T07:33:01.696Z,81.39
2017-12-25T07:35:30.943Z,81.47
2017-12-25T07:38:00.922Z,81.46
2017-12-25T07:40:30.129Z,80.99
2017-12-25T07:42:59.523Z,80.92
2017-12-25T07:45:28.720Z,80.80
2017-12-25T07:47:57.917Z,81.12
2017-12-25T07:50:27.104Z,80.87
2017-12-25T07:52:56.310Z,80.55
2017-12-25T07:55:25.521Z,80.73
2017-12-25T07:57:54.730Z,80.31
2017-12-25T08:00:23.962Z,80.44
2017-12-25T08:02:53.157Z,80.01
2017-12-25T08:05:22.350Z,79.78
2017-12-25T08:07:51.559Z,79.66
2017-12-25T08:10:20.799Z,80.08
2017-12-25T08:12:49.990Z,80.22
2017-12-25T08:15:19.206Z,80.43
2017-12-25T08:17:48.399Z,80.61
2017-12-25T08:20:17.612Z,80.58
2017-12-25T08:22:47.575Z,80.87
2017-12-25T08:25:16.880Z,80.56
2017-12-25T08:27:46.068Z,80.62
2017-12-25T08:30:15.288Z,80.78
2017-12-25T08:32:44.471Z,80.40
2017-12-25T08:35:13.764Z,80.65
2017-12-25T08:37:42.967Z,80.51
2017-12-25T08:40:12.181Z,80.92
2017-12-25T08:42:41.379Z,80.52
2017-12-25T08:45:10.598Z,80.61
2017-12-25T08:47:39.790Z,80.34
2017-12-25T08:50:09.307Z,80.48
2017-12-25T08:52:38.488Z,80.70
2017-12-25T08:55:07.735Z,81.14
2017-12-25T08:57:36.960Z,81.09
2017-12-25T09:00:06.160Z,80.63
2017-12-25T09:02:35.350Z,80.73
2017-12-25T09:05:04.556Z,80.79
2017-12-25T09:07:33.780Z,80.57
2017-12-25T09:10:02.966Z,80.77
2017-12-25T09:12:32.184Z,80.44
2017-12-25T09:15:01.384Z,80.74
2017-12-25T09:17:31.347Z,80.58
2017-12-25T09:20:00.579Z,79.94
2017-12-25T09:22:29.766Z,80.43
2017-12-25T09:24:58.980Z,80.35
2017-12-25T09:27:28.199Z,80.18
2017-12-25T09:29:58.174Z,80.31
2017-12-25T09:32:27.390Z,80.32
2017-12-25T09:34:56.587Z,79.72
2017-12-25T09:37:26.630Z,80.19
2017-12-25T09:39:56.596Z,79.90
2017-12-25T09:42:25.823Z,80.05
2017-12-25T09:44:55.024Z,80.32
2017-12-25T09:47:24.263Z,80.34
2017-12-25T09:49:53.475Z,80.47
2017-12-25T09:52:22.663Z,80.60
2017-12-25T09:54:51.867Z,80.84
2017-12-25T09:57:21.076Z,80.53
2017-12-25T09:59:50.295Z,80.76
2017-12-25T10:02:19.501Z,81.33
2017-12-25T10:04:48.691Z,81.27
2017-12-25T10:07:17.865Z,81.24
2017-12-25T10:09:47.071Z,82.12
2017-12-25T10:12:16.284Z,81.89
2017-12-25T10:14:45.489Z,82.25
2017-12-25T10:17:14.679Z,82.26
2017-12-25T10:19:43.889Z,82.20
2017-12-25T10:22:13.071Z,81.57
2017-12-25T10:24:42.286Z,81.26
2017-12-25T10:27:12.290Z,81.16
2017-12-25T10:29:41.520Z,81.23
2017-12-25T10:32:10.728Z,81.07
2017-12-25T10:34:39.930Z,80.55
2017-12-25T10:37:09.159Z,80.48
2017-12-25T10:39:38.372Z,79.91
2017-12-25T10:42:07.568Z,80.07
2017-12-25T10:44:36.775Z,79.98
2017-12-25T10:47:06.783Z,79.92
2017-12-25T10:49:35.994Z,79.59
2017-12-25T10:52:05.983Z,79.62
2017-12-25T10:54:35.207Z,79.24
2017-12-25T10:57:04.569Z,79.43
2017-12-25T10:59:33.765Z,79.33
2017-12-25T11:02:03.070Z,79.20
2017-12-25T11:04:32.325Z,79.05
2017-12-25T11:07:01.535Z,78.25
2017-12-25T11:09:30.911Z,78.35
2017-12-25T11:12:00.118Z,78.05
2017-12-25T11:14:30.092Z,78.46
2017-12-25T11:16:59.435Z,78.03
2017-12-25T11:19:29.432Z,78.00
2017-12-25T11:21:59.395Z,77.75
2017-12-25T11:24:28.634Z,77.67
2017-12-25T11:26:57.833Z,77.34
2017-12-25T11:29:27.019Z,77.67
2017-12-25T11:31:56.248Z,77.86
2017-12-25T11:34:26.209Z,77.68
2017-12-25T11:36:55.435Z,77.62
2017-12-25T11:39:24.632Z,77.57
2017-12-25T11:41:53.850Z,77.72
2017-12-25T11:44:23.087Z,77.73
2017-12-25T11:46:52.294Z,77.61
2017-12-25T11:49:21.521Z,77.20
2017-12-25T11:51:50.739Z,77.25
2017-12-25T11:54:19.983Z,77.55
2017-12-25T11:56:49.186Z,77.32
2017-12-25T11:59:18.404Z,77.20
2017-12-25T12:01:47.603Z,76.89
2017-12-25T12:04:16.797Z,77.10
2017-12-25T12:06:45.999Z,77.06
2017-12-25T12:09:15.286Z,77.02
2017-12-25T12:11:44.430Z,77.51
2017-12-25T12:14:13.672Z,76.93
2017-12-25T12:16:42.865Z,77.20
2017-12-25T12:19:12.075Z,77.34
2017-12-25T12:21:41.279Z,77.15
2017-12-25T12:24:10.457Z,77.24
2017-12-25T12:26:39.670Z,76.86
2017-12-25T12:29:08.887Z,77.11
2017-12-25T12:31:38.096Z,76.88
2017-12-25T12:34:08.090Z,77.22
2017-12-25T12:36:37.331Z,76.33
2017-12-25T12:39:07.286Z,76.31
2017-12-25T12:41:36.512Z,76.35
2017-12-25T12:44:05.711Z,76.91
2017-12-25T12:46:34.914Z,76.12
2017-12-25T12:49:04.875Z,76.09
2017-12-25T12:51:34.074Z,75.90
2017-12-25T12:54:03.264Z,76.11
2017-12-25T12:56:32.485Z,76.01
2017-12-25T12:59:01.714Z,75.43
2017-12-25T13:01:32.700Z,74.93
2017-12-25T13:04:05.646Z,75.21
2017-12-25T13:06:35.638Z,74.94
2017-12-25T13:09:04.890Z,74.97
2017-12-25T13:11:34.095Z,74.78
2017-12-25T13:14:03.308Z,74.46
2017-12-25T13:16:32.528Z,74.53
2017-12-25T13:19:01.784Z,74.34
2017-12-25T13:21:31.028Z,74.10
2017-12-25T13:24:00.226Z,73.77
2017-12-25T13:26:29.441Z,74.06
2017-12-25T13:28:59.436Z,73.74
2017-12-25T13:31:28.638Z,73.88
2017-12-25T13:33:57.890Z,73.29
2017-12-25T13:36:27.098Z,73.26
2017-12-25T13:38:56.335Z,72.63
2017-12-25T13:41:25.527Z,72.55
2017-12-25T13:43:54.835Z,72.69
2017-12-25T13:46:24.048Z,72.72
2017-12-25T13:48:54.023Z,72.93
2017-12-25T13:51:23.219Z,72.87
2017-12-25T13:53:52.450Z,72.39
2017-12-25T13:56:21.655Z,72.88
2017-12-25T13:58:51.623Z,72.21
2017-12-25T14:01:20.823Z,72.54
2017-12-25T14:03:50.024Z,72.42
2017-12-25T14:06:19.280Z,72.56
2017-12-25T14:08:48.486Z,72.56
2017-12-25T14:11:17.692Z,72.42
2017-12-25T14:13:46.919Z,71.85
2017-12-25T14:16:16.110Z,72.05
2017-12-25T14:18:45.315Z,72.90
2017-12-25T14:21:14.532Z,72.25
2017-12-25T14:23:43.738Z,71.40
2017-12-25T14:26:13.706Z,71.58
2017-12-25T14:28:42.927Z,72.48
2017-12-25T14:31:12.166Z,72.71
2017-12-25T14:33:41.376Z,72.46
2017-12-25T14:36:10.603Z,72.37
2017-12-25T14:38:39.819Z,72.70
2017-12-25T14:41:09.079Z,72.53
2017-12-25T14:43:38.288Z,72.57
2017-12-25T14:46:07.554Z,73.25
2017-12-25T14:48:37.537Z,72.18
2017-12-25T14:51:06.729Z,72.66
2017-12-25T14:53:35.955Z,72.70
2017-12-25T14:56:05.920Z,73.05
2017-12-25T14:58:35.131Z,72.83
2017-12-25T15:01:04.336Z,73.27
2017-12-25T15:03:33.588Z,72.76
2017-12-25T15:06:02.779Z,72.90
2017-12-25T15:08:31.980Z,73.59
2017-12-25T15:11:01.191Z,72.93
2017-12-25T15:13:30.421Z,73.12
2017-12-25T15:15:59.639Z,72.89
2017-12-25T15:18:28.843Z,72.72
2017-12-25T15:20:58.067Z,72.89
2017-12-25T15:23:27.278Z,72.46
2017-12-25T15:25:56.496Z,73.16
2017-12-25T15:28:25.800Z,72.64
2017-12-25T15:30:55.003Z,73.04
2017-12-25T15:33:24.211Z,73.58
2017-12-25T15:35:53.442Z,73.28
2017-12-25T15:38:23.419Z,73.22
2017-12-25T15:40:52.604Z,72.84
2017-12-25T15:43:21.813Z,73.41
2017-12-25T15:45:51.024Z,73.11
2017-12-25T15:48:20.256Z,71.98
2017-12-25T15:50:49.455Z,72.50
2017-12-25T15:53:18.687Z,72.58
2017-12-25T15:55:47.876Z,72.49
2017-12-25T15:58:17.062Z,73.08
2017-12-25T16:00:46.295Z,72.79
2017-12-25T16:03:15.486Z,72.86
2017-12-25T16:05:44.696Z,73.29
2017-12-25T16:08:13.902Z,73.28
2017-12-25T16:10:43.894Z,73.65
2017-12-25T16:13:13.105Z,73.80
2017-12-25T16:15:42.300Z,74.23
2017-12-25T16:18:11.506Z,74.46
2017-12-25T16:20:40.694Z,75.09
2017-12-25T16:23:09.886Z,75.38
2017-12-25T16:25:39.225Z,75.05
2017-12-25T16:28:08.422Z,75.45
2017-12-25T16:30:38.411Z,75.67
2017-12-25T16:33:07.620Z,76.03
2017-12-25T16:35:36.806Z,75.59
2017-12-25T16:38:06.018Z,75.69
2017-12-25T16:40:35.962Z,76.20
2017-12-25T16:43:05.193Z,75.76
2017-12-25T16:45:34.480Z,75.69
2017-12-25T16:48:03.690Z,75.82
2017-12-25T16:50:32.963Z,75.51
2017-12-25T16:53:02.909Z,75.58
2017-12-25T16:55:32.110Z,75.70
2017-12-25T16:58:01.310Z,75.65
2017-12-25T17:00:30.517Z,75.84
2017-12-25T17:02:59.751Z,75.61
2017-12-25T17:05:28.947Z,75.81
2017-12-25T17:07:59.019Z,75.84
2017-12-25T17:10:28.247Z,75.78
2017-12-25T17:12:58.243Z,76.12
2017-12-25T17:15:27.720Z,75.68
2017-12-25T17:17:58.589Z,75.83
2017-12-25T17:20:27.864Z,76.15
2017-12-25T17:22:57.233Z,75.72
2017-12-25T17:25:26.428Z,75.60
2017-12-25T17:27:55.630Z,75.74
2017-12-25T17:30:24.899Z,75.93
2017-12-25T17:32:54.869Z,75.54
2017-12-25T17:35:24.051Z,76.27
2017-12-25T17:37:53.422Z,75.95
2017-12-25T17:40:22.678Z,75.82
2017-12-25T17:42:51.868Z,75.49
2017-12-25T17:45:21.152Z,75.94
2017-12-25T17:47:50.384Z,75.67
2017-12-25T17:50:19.577Z,75.62
2017-12-25T17:52:48.774Z,75.78
2017-12-25T17:55:18.010Z,75.66
2017-12-25T17:57:47.339Z,76.09
2017-12-25T18:00:16.548Z,75.82
2017-12-25T18:02:45.736Z,75.56
2017-12-25T18:05:14.932Z,75.79
2017-12-25T18:07:44.141Z,75.99
2017-12-25T18:10:13.360Z,76.20
2017-12-25T18:12:43.360Z,76.49
2017-12-25T18:15:12.631Z,76.44
2017-12-25T18:17:41.811Z,75.98
2017-12-25T18:20:11.056Z,76.17
2017-12-25T18:22:40.275Z,76.36
2017-12-25T18:25:09.532Z,76.38
2017-12-25T18:27:38.755Z,76.53
2017-12-25T18:30:07.997Z,76.74
2017-12-25T18:32:37.972Z,76.86
2017-12-25T18:35:07.222Z,76.84
2017-12-25T18:37:36.391Z,76.55
2017-12-25T18:40:06.439Z,76.54
2017-12-25T18:42:35.626Z,76.42
2017-12-25T18:45:04.853Z,76.10
2017-12-25T18:47:34.099Z,76.51
2017-12-25T18:50:04.084Z,76.46
2017-12-25T18:52:34.088Z,76.60
2017-12-25T18:55:03.272Z,76.62
2017-12-25T18:57:32.530Z,76.62
2017-12-25T19:00:02.628Z,76.46
2017-12-25T19:02:31.832Z,76.13
2017-12-25T19:05:01.831Z,76.19
2017-12-25T19:07:31.118Z,76.41
2017-12-25T19:10:00.319Z,75.95
2017-12-25T19:12:30.334Z,76.14
2017-12-25T19:14:59.585Z,76.25
2017-12-25T19:17:29.585Z,76.29
2017-12-25T19:19:59.579Z,76.23
2017-12-25T19:22:28.826Z,76.41
2017-12-25T19:24:58.760Z,76.62
2017-12-25T19:27:27.974Z,76.58
2017-12-25T19:29:57.184Z,76.51
2017-12-25T19:32:26.429Z,76.50
2017-12-25T19:34:55.740Z,76.56
2017-12-25T19:37:24.966Z,77.04
2017-12-25T19:39:54.387Z,76.99
2017-12-25T19:42:23.646Z,77.33
2017-12-25T19:44:53.039Z,77.32
2017-12-25T19:47:22.448Z,77.51
2017-12-25T19:49:51.836Z,77.60
2017-12-25T19:52:21.102Z,77.55
2017-12-25T19:54:51.270Z,76.82
2017-12-25T19:57:20.556Z,76.78
2017-12-25T19:59:50.064Z,77.16
2017-12-25T20:02:19.555Z,76.88
2017-12-25T20:04:48.968Z,76.83
2017-12-25T20:07:18.555Z,76.66
2017-12-25T20:09:48.570Z,76.47
2017-12-25T20:12:18.313Z,76.04
2017-12-25T20:14:47.964Z,75.82
2017-12-25T20:17:17.311Z,76.29
2017-12-25T20:19:47.486Z,76.01
2017-12-25T20:22:16.735Z,75.95
2017-12-25T20:24:46.415Z,75.98
2017-12-25T20:27:16.962Z,76.23
2017-12-25T20:29:47.254Z,76.12
2017-12-25T20:32:17.426Z,76.21
2017-12-25T20:34:46.670Z,76.14
2017-12-25T20:37:16.248Z,76.32
2017-12-25T20:39:46.368Z,76.73
2017-12-25T20:42:16.411Z,76.96
2017-12-25T20:44:46.338Z,76.82
2017-12-25T20:47:17.433Z,76.72
2017-12-25T20:49:47.462Z,77.13
2017-12-25T20:52:17.429Z,77.48
2017-12-25T20:54:47.028Z,77.34
2017-12-25T20:57:17.223Z,77.54
2017-12-25T20:59:47.558Z,77.18
2017-12-25T21:02:17.149Z,77.08
2017-12-25T21:04:47.282Z,77.60
2017-12-25T21:07:17.186Z,77.75
2017-12-25T21:09:46.794Z,77.27
2017-12-25T21:12:17.069Z,77.12
2017-12-25T21:14:46.490Z,77.48
2017-12-25T21:17:15.857Z,77.34
2017-12-25T21:19:45.103Z,77.37
2017-12-25T21:22:14.411Z,77.24
2017-12-25T21:24:43.670Z,76.99
2017-12-25T21:27:12.930Z,77.05
2017-12-25T21:29:42.948Z,77.05
2017-12-25T21:32:12.362Z,77.26
2017-12-25T21:34:41.661Z,76.95
2017-12-25T21:37:10.956Z,77.16
2017-12-25T21:39:40.236Z,77.76
2017-12-25T21:42:10.255Z,77.93
2017-12-25T21:44:39.507Z,78.23
2017-12-25T21:47:08.802Z,78.22
2017-12-25T21:49:38.084Z,78.28
2017-12-25T21:52:07.313Z,78.14
2017-12-25T21:54:36.543Z,78.19
2017-12-25T21:57:05.766Z,78.29
2017-12-25T21:59:35.104Z,78.59
2017-12-25T22:02:04.334Z,78.69
2017-12-25T22:04:33.656Z,78.72
2017-12-25T22:07:03.618Z,78.77
2017-12-25T22:09:32.814Z,78.69
2017-12-25T22:12:02.128Z,78.88
2017-12-25T22:14:31.340Z,78.60
2017-12-25T22:17:00.575Z,78.71
2017-12-25T22:19:29.790Z,78.73
2017-12-25T22:21:59.179Z,78.74
2017-12-25T22:24:29.190Z,78.58
2017-12-25T22:26:59.190Z,78.67
2017-12-25T22:29:29.271Z,78.84
2017-12-25T22:31:58.523Z,78.80
2017-12-25T22:34:27.802Z,79.16
2017-12-25T22:36:57.787Z,79.15
2017-12-25T22:39:27.057Z,79.24
2017-12-25T22:41:56.215Z,79.16
2017-12-25T22:44:26.217Z,78.85
2017-12-25T22:46:55.419Z,78.76
2017-12-25T22:49:25.397Z,78.80
2017-12-25T22:51:54.583Z,78.68
2017-12-25T22:54:23.797Z,78.53
2017-12-25T22:56:53.065Z,78.73
2017-12-25T22:59:22.262Z,78.64
2017-12-25T23:01:51.479Z,78.95
2017-12-25T23:04:20.658Z,78.76
2017-12-25T23:06:49.851Z,78.66
2017-12-25T23:09:19.033Z,78.78
2017-12-25T23:11:48.324Z,78.55
2017-12-25T23:14:18.270Z,78.69
2017-12-25T23:16:47.496Z,78.82
2017-12-25T23:19:16.735Z,78.75
2017-12-25T23:21:46.714Z,78.63
2017-12-25T23:24:16.700Z,77.98
2017-12-25T23:26:45.925Z,77.81
2017-12-25T23:29:15.102Z,78.06
2017-12-25T23:31:44.299Z,78.00
2017-12-25T23:34:13.501Z,77.74
2017-12-25T23:36:42.765Z,77.80
2017-12-25T23:39:12.715Z,77.98
2017-12-25T23:41:41.924Z,77.57
2017-12-25T23:44:11.129Z,77.96
2017-12-25T23:46:40.341Z,77.97
2017-12-25T23:49:09.539Z,77.67
2017-12-25T23:51:38.852Z,78.28
2017-12-25T23:54:08.913Z,78.60
2017-12-25T23:56:38.102Z,78.40
2017-12-25T23:59:07.325Z,78.29
